Time;durP1;ratioP1;P1;durP2;ratioP2;P2;SDS_P1;SDS_P2;PMS_P1;PMS_P2;Temp;Humidity;BMP_temperature;BMP_pressure;BME280_temperature;BME280_humidity;BME280_pressure;Samples;Min_cycle;Max_cycle;Signal;HPM_P1;HPM_P2
2021/04/30 00:01:17;;;;;;;2.90;2.60;;;25.10;62.20;;;;;;5130950;27;20574;-50
2021/04/30 00:03:43;;;;;;;2.87;2.30;;;25.10;62.10;;;;;;5135541;27;20068;-48
2021/04/30 00:06:09;;;;;;;3.13;2.80;;;25.00;62.10;;;;;;5130459;27;20062;-47
2021/04/30 00:08:37;;;;;;;2.47;2.28;;;25.10;62.00;;;;;;5136918;27;20099;-49
2021/04/30 00:11:04;;;;;;;2.60;2.33;;;25.10;62.00;;;;;;5124585;27;20077;-49
2021/04/30 00:13:30;;;;;;;2.57;2.37;;;25.10;62.00;;;;;;5133643;27;20031;-50
2021/04/30 00:15:59;;;;;;;3.20;2.65;;;25.10;62.00;;;;;;5138613;27;20628;-49
2021/04/30 00:18:25;;;;;;;2.78;2.35;;;25.00;61.90;;;;;;5134606;27;20023;-49
2021/04/30 00:20:56;;;;;;;2.63;2.28;;;25.10;62.00;;;;;;5131209;27;20030;-46
2021/04/30 00:23:29;;;;;;;2.42;2.22;;;25.00;62.00;;;;;;5138060;27;20078;-45
2021/04/30 00:25:56;;;;;;;3.13;2.42;;;25.00;61.90;;;;;;5123366;27;20024;-49
2021/04/30 00:28:23;;;;;;;2.70;2.50;;;25.00;61.90;;;;;;5115808;28;20057;-48
2021/04/30 00:30:50;;;;;;;2.45;2.25;;;25.00;61.90;;;;;;5130421;27;20072;-47
2021/04/30 00:33:16;;;;;;;2.72;2.50;;;25.00;61.90;;;;;;5110504;28;20023;-46
2021/04/30 00:35:43;;;;;;;3.60;2.67;;;25.00;61.90;;;;;;5136606;27;20050;-47
2021/04/30 00:38:09;;;;;;;2.97;2.67;;;25.00;62.00;;;;;;5134118;27;20035;-48
2021/04/30 00:40:35;;;;;;;2.73;2.53;;;25.00;62.00;;;;;;5130709;27;20450;-46
2021/04/30 00:43:02;;;;;;;2.53;2.33;;;25.00;62.10;;;;;;5129646;27;20162;-48
2021/04/30 00:45:28;;;;;;;3.10;2.80;;;25.00;62.10;;;;;;5126570;27;20063;-48
2021/04/30 00:47:55;;;;;;;2.85;2.60;;;24.90;62.00;;;;;;5135058;27;20252;-47
2021/04/30 00:50:23;;;;;;;2.40;2.20;;;24.90;62.10;;;;;;5134819;28;20555;-48
2021/04/30 00:52:49;;;;;;;2.90;2.60;;;24.90;62.10;;;;;;5125447;28;20035;-47
2021/04/30 00:55:16;;;;;;;2.67;2.47;;;24.90;62.20;;;;;;5136796;28;20031;-51
2021/04/30 00:57:48;;;;;;;3.63;2.65;;;24.90;62.20;;;;;;5136533;27;20267;-50
2021/04/30 01:00:14;;;;;;;2.80;2.50;;;24.90;62.90;;;;;;5120230;27;20039;-48
2021/04/30 01:02:40;;;;;;;3.20;2.75;;;24.90;62.20;;;;;;5137486;27;20027;-47
2021/04/30 01:05:08;;;;;;;3.30;2.57;;;24.90;62.10;;;;;;5134614;27;20031;-49
2021/04/30 01:07:34;;;;;;;3.00;2.80;;;24.90;62.10;;;;;;5142168;27;20055;-47
2021/04/30 01:10:00;;;;;;;3.43;2.50;;;24.80;61.90;;;;;;5126558;27;20043;-51
2021/04/30 01:12:26;;;;;;;3.07;2.60;;;24.80;61.90;;;;;;5135006;27;20031;-49
2021/04/30 01:14:53;;;;;;;3.30;2.78;;;24.80;61.90;;;;;;5137497;27;20411;-48
2021/04/30 01:17:19;;;;;;;3.08;2.78;;;24.80;61.90;;;;;;5121105;27;20040;-48
2021/04/30 01:19:45;;;;;;;2.97;2.67;;;24.80;61.90;;;;;;5133911;27;20034;-47
2021/04/30 01:22:11;;;;;;;3.03;2.72;;;24.80;61.90;;;;;;5136028;27;20049;-49
2021/04/30 01:24:37;;;;;;;3.08;2.70;;;24.80;61.90;;;;;;5138858;27;20027;-50
2021/04/30 01:27:04;;;;;;;3.20;2.53;;;24.80;61.90;;;;;;5132718;27;20105;-50
2021/04/30 01:29:30;;;;;;;2.78;2.58;;;24.80;61.90;;;;;;5142445;27;20480;-49
2021/04/30 01:31:56;;;;;;;2.70;2.50;;;24.80;61.90;;;;;;5133621;27;20469;-47
2021/04/30 01:34:23;;;;;;;2.60;2.40;;;24.80;61.90;;;;;;5137374;27;20133;-48
2021/04/30 01:36:49;;;;;;;3.83;2.83;;;24.80;61.90;;;;;;5133661;27;20035;-47
2021/04/30 01:39:15;;;;;;;2.63;2.40;;;24.80;62.00;;;;;;5125813;27;20054;-50
2021/04/30 01:41:42;;;;;;;2.80;2.60;;;24.80;62.10;;;;;;5133934;27;20358;-50
2021/04/30 01:44:12;;;;;;;3.45;2.80;;;24.70;62.00;;;;;;5133974;27;20051;-46
2021/04/30 01:46:38;;;;;;;2.80;2.60;;;24.70;62.00;;;;;;5117704;27;20567;-47
2021/04/30 01:49:05;;;;;;;2.80;2.45;;;24.70;62.00;;;;;;5135843;27;20050;-49
2021/04/30 01:51:34;;;;;;;2.75;2.55;;;24.70;62.10;;;;;;5139443;27;20031;-47
2021/04/30 01:54:00;;;;;;;2.78;2.58;;;24.60;62.00;;;;;;5117669;27;20061;-47
2021/04/30 01:56:26;;;;;;;2.65;2.45;;;24.60;62.10;;;;;;5133006;27;20095;-46
2021/04/30 01:58:53;;;;;;;3.50;2.80;;;24.60;62.10;;;;;;5135193;27;20061;-48
2021/04/30 02:01:19;;;;;;;2.78;2.58;;;24.60;62.10;;;;;;5141158;27;20035;-48
2021/04/30 02:03:45;;;;;;;2.92;2.65;;;24.60;62.10;;;;;;5134341;27;20025;-50
2021/04/30 02:06:11;;;;;;;3.35;3.05;;;24.60;62.10;;;;;;5133603;27;20023;-50
2021/04/30 02:08:37;;;;;;;3.67;2.80;;;24.60;62.00;;;;;;5142633;27;20480;-51
2021/04/30 02:11:04;;;;;;;3.58;3.22;;;24.60;62.00;;;;;;5136193;27;20024;-48
2021/04/30 02:13:30;;;;;;;3.40;2.78;;;24.60;62.00;;;;;;5128924;27;20031;-46
2021/04/30 02:15:57;;;;;;;2.95;2.75;;;24.60;61.80;;;;;;5137334;27;20039;-47
2021/04/30 02:18:24;;;;;;;3.28;2.33;;;24.50;61.70;;;;;;5132346;27;20039;-47
2021/04/30 02:20:50;;;;;;;2.83;2.63;;;24.60;61.60;;;;;;5132512;27;20046;-47
2021/04/30 02:23:16;;;;;;;3.23;2.93;;;24.50;61.60;;;;;;5132282;27;20027;-48
2021/04/30 02:25:43;;;;;;;3.33;3.03;;;24.50;61.60;;;;;;5140869;27;20260;-48
2021/04/30 02:28:09;;;;;;;3.00;2.70;;;24.50;61.60;;;;;;5132332;27;20095;-50
2021/04/30 02:30:37;;;;;;;3.30;3.00;;;24.50;61.60;;;;;;5136804;27;20031;-48
2021/04/30 02:33:03;;;;;;;3.17;2.53;;;24.50;61.60;;;;;;5144919;27;20026;-48
2021/04/30 02:35:36;;;;;;;2.87;2.63;;;24.50;61.50;;;;;;5124637;28;20067;-46
2021/04/30 02:38:03;;;;;;;3.67;2.90;;;24.50;61.60;;;;;;5136249;27;20055;-51
2021/04/30 02:40:30;;;;;;;3.13;2.85;;;24.50;61.70;;;;;;5137555;27;20042;-45
2021/04/30 02:42:58;;;;;;;3.63;3.17;;;24.50;61.60;;;;;;5135159;27;20031;-46
2021/04/30 02:45:24;;;;;;;3.38;2.80;;;24.40;61.60;;;;;;5134270;27;20054;-49
2021/04/30 02:47:51;;;;;;;2.97;2.77;;;24.40;61.70;;;;;;5137192;27;20023;-49
2021/04/30 02:50:22;;;;;;;2.80;2.60;;;24.40;61.80;;;;;;5137209;27;20034;-47
2021/04/30 02:52:49;;;;;;;3.05;2.75;;;24.40;61.80;;;;;;5133208;27;20050;-46
2021/04/30 02:55:17;;;;;;;3.20;2.90;;;24.30;61.70;;;;;;5131871;27;20065;-46
2021/04/30 02:57:43;;;;;;;3.17;2.85;;;24.30;61.60;;;;;;5136008;27;20032;-48
2021/04/30 03:00:10;;;;;;;3.38;2.85;;;24.30;61.80;;;;;;5128686;27;20027;-50
2021/04/30 03:02:37;;;;;;;2.70;2.47;;;24.30;61.60;;;;;;5137391;27;20543;-44
2021/04/30 03:05:03;;;;;;;3.38;3.08;;;24.30;61.80;;;;;;5111031;27;20035;-47
2021/04/30 03:07:30;;;;;;;3.00;2.72;;;24.30;61.60;;;;;;5128163;27;20032;-46
2021/04/30 03:09:56;;;;;;;3.50;3.20;;;24.30;61.60;;;;;;5132297;27;20130;-47
2021/04/30 03:12:22;;;;;;;3.03;2.70;;;24.30;61.40;;;;;;5132852;27;20046;-48
2021/04/30 03:14:48;;;;;;;3.15;2.85;;;24.30;61.30;;;;;;5135598;27;20027;-50
2021/04/30 03:17:14;;;;;;;3.25;2.47;;;24.30;61.40;;;;;;5131035;27;20049;-49
2021/04/30 03:19:41;;;;;;;3.08;2.78;;;24.30;61.30;;;;;;5132008;27;20040;-48
2021/04/30 03:22:07;;;;;;;2.88;2.67;;;24.30;61.20;;;;;;5130647;27;20138;-49
2021/04/30 03:24:33;;;;;;;3.03;2.72;;;24.20;61.30;;;;;;5133834;27;20796;-50
2021/04/30 03:26:59;;;;;;;3.10;2.80;;;24.20;61.10;;;;;;5134513;27;20051;-48
2021/04/30 03:29:25;;;;;;;2.92;2.55;;;24.20;61.20;;;;;;5136200;27;20045;-49
2021/04/30 03:31:52;;;;;;;2.63;2.43;;;24.20;61.00;;;;;;5132279;27;20031;-48
2021/04/30 03:34:18;;;;;;;2.75;2.55;;;24.20;61.20;;;;;;5135491;27;20661;-51
2021/04/30 03:36:44;;;;;;;3.15;2.83;;;24.20;61.20;;;;;;5143714;27;20068;-49
2021/04/30 03:39:11;;;;;;;2.90;2.70;;;24.20;61.00;;;;;;5133037;27;20098;-48
2021/04/30 03:41:37;;;;;;;3.10;2.78;;;24.20;61.00;;;;;;5137867;27;20035;-48
2021/04/30 03:44:04;;;;;;;2.95;2.75;;;24.10;61.10;;;;;;5129351;27;20030;-48
2021/04/30 03:46:30;;;;;;;2.83;2.53;;;24.10;61.20;;;;;;5127973;27;20030;-47
2021/04/30 03:48:56;;;;;;;3.00;2.70;;;24.10;61.30;;;;;;5139500;27;20030;-47
2021/04/30 03:51:22;;;;;;;3.70;2.70;;;24.10;61.20;;;;;;5131718;27;20098;-47
2021/04/30 03:53:48;;;;;;;3.55;2.63;;;24.10;61.30;;;;;;5129259;27;20253;-50
2021/04/30 03:56:15;;;;;;;2.63;2.42;;;24.10;61.30;;;;;;5132713;27;20060;-49
2021/04/30 03:58:41;;;;;;;3.00;2.80;;;24.10;61.30;;;;;;5133418;27;20090;-47
2021/04/30 04:01:07;;;;;;;4.03;2.55;;;24.10;61.40;;;;;;5131133;27;20059;-47
2021/04/30 04:03:35;;;;;;;3.10;2.80;;;24.00;61.30;;;;;;5127104;27;20053;-48
2021/04/30 04:06:01;;;;;;;3.28;2.97;;;24.00;61.30;;;;;;5116285;28;20035;-49
2021/04/30 04:08:29;;;;;;;3.47;3.03;;;24.00;61.20;;;;;;5127037;27;20035;-47
2021/04/30 04:10:55;;;;;;;2.67;2.47;;;24.00;61.10;;;;;;5130858;27;20048;-49
2021/04/30 04:13:23;;;;;;;3.53;2.80;;;24.00;61.10;;;;;;5141782;27;20019;-51
2021/04/30 04:15:50;;;;;;;2.65;2.45;;;24.00;61.20;;;;;;5133196;27;20043;-51
2021/04/30 04:18:16;;;;;;;3.67;2.80;;;24.00;61.10;;;;;;5133189;27;20020;-58
2021/04/30 04:20:42;;;;;;;3.30;3.00;;;24.00;61.90;;;;;;5135395;27;20032;-57
2021/04/30 04:23:09;;;;;;;2.93;2.60;;;24.00;61.10;;;;;;5129409;27;20031;-58
2021/04/30 04:25:36;;;;;;;3.15;2.85;;;24.00;60.90;;;;;;5117082;28;20038;-61
2021/04/30 04:28:02;;;;;;;2.67;2.47;;;24.00;61.00;;;;;;5130016;27;20027;-61
2021/04/30 04:30:28;;;;;;;2.93;2.50;;;24.00;60.80;;;;;;5131732;27;20034;-58
2021/04/30 04:32:54;;;;;;;3.20;2.75;;;24.00;60.90;;;;;;5125649;27;20038;-54
2021/04/30 04:35:21;;;;;;;3.22;2.72;;;24.00;61.00;;;;;;5114477;27;20077;-55
2021/04/30 04:37:47;;;;;;;3.42;3.13;;;24.00;61.00;;;;;;5131579;27;20019;-57
2021/04/30 04:40:15;;;;;;;2.97;2.58;;;24.00;61.10;;;;;;5133868;27;20063;-57
2021/04/30 04:42:42;;;;;;;2.78;2.28;;;23.90;60.90;;;;;;5130539;27;20039;-53
2021/04/30 04:45:08;;;;;;;2.85;2.47;;;24.00;61.20;;;;;;5130837;27;20027;-52
2021/04/30 04:47:35;;;;;;;3.17;2.88;;;23.90;61.20;;;;;;5129389;27;20041;-53
2021/04/30 04:50:01;;;;;;;3.10;2.78;;;23.90;61.30;;;;;;5131805;28;20031;-54
2021/04/30 04:52:27;;;;;;;3.00;2.70;;;23.90;61.30;;;;;;5136762;27;20052;-53
2021/04/30 04:54:53;;;;;;;2.55;2.35;;;23.90;61.40;;;;;;5131153;28;20039;-53
2021/04/30 04:57:19;;;;;;;3.53;2.90;;;23.90;61.40;;;;;;5129823;28;20066;-50
2021/04/30 04:59:45;;;;;;;3.33;2.75;;;23.90;61.50;;;;;;5130156;28;20056;-51
2021/04/30 05:02:12;;;;;;;3.10;2.67;;;23.90;61.50;;;;;;5129211;28;20026;-52
2021/04/30 05:04:38;;;;;;;3.10;2.80;;;23.80;61.40;;;;;;5132808;28;20038;-51
2021/04/30 05:07:04;;;;;;;2.67;2.47;;;23.80;61.30;;;;;;5132083;28;20028;-51
2021/04/30 05:09:30;;;;;;;2.78;2.45;;;23.80;61.30;;;;;;5126145;28;20052;-50
2021/04/30 05:11:56;;;;;;;2.60;2.40;;;23.80;61.20;;;;;;5126298;28;20020;-50
2021/04/30 05:14:22;;;;;;;2.72;2.40;;;23.80;61.20;;;;;;5126810;28;20034;-51
2021/04/30 05:16:49;;;;;;;2.63;2.40;;;23.80;61.20;;;;;;5129579;28;20024;-48
2021/04/30 05:19:15;;;;;;;3.17;2.90;;;23.80;61.30;;;;;;5132273;28;20110;-52
2021/04/30 05:21:44;;;;;;;2.47;2.33;;;23.80;61.40;;;;;;5128356;28;20268;-50
2021/04/30 05:24:13;;;;;;;2.97;2.55;;;23.80;61.50;;;;;;5126966;28;20050;-51
2021/04/30 05:26:40;;;;;;;3.08;2.80;;;23.80;61.50;;;;;;5108205;28;20031;-52
2021/04/30 05:29:06;;;;;;;2.90;2.43;;;23.80;61.50;;;;;;5130713;28;20032;-48
2021/04/30 05:31:35;;;;;;;2.90;2.30;;;23.80;61.50;;;;;;5126494;28;20287;-55
2021/04/30 05:34:02;;;;;;;3.45;2.80;;;23.80;61.60;;;;;;5128596;28;20113;-52
2021/04/30 05:36:28;;;;;;;3.15;2.67;;;23.70;61.50;;;;;;5134580;28;20023;-50
2021/04/30 05:38:54;;;;;;;3.20;2.50;;;23.80;61.50;;;;;;5134109;28;20118;-51
2021/04/30 05:41:20;;;;;;;3.33;2.80;;;23.70;61.30;;;;;;5129126;28;20035;-48
2021/04/30 05:43:46;;;;;;;3.20;2.90;;;23.70;61.20;;;;;;5132202;27;20049;-48
2021/04/30 05:46:13;;;;;;;3.13;2.83;;;23.70;61.20;;;;;;5137376;27;20051;-47
2021/04/30 05:48:39;;;;;;;3.40;3.10;;;23.70;61.20;;;;;;5132762;27;20619;-49
2021/04/30 05:51:05;;;;;;;2.60;2.40;;;23.70;61.10;;;;;;5138116;27;20034;-47
2021/04/30 05:53:31;;;;;;;2.95;2.67;;;23.70;61.20;;;;;;5144026;27;20555;-49
2021/04/30 05:55:57;;;;;;;2.80;2.50;;;23.70;61.20;;;;;;5134291;27;20039;-47
2021/04/30 05:58:24;;;;;;;2.70;2.50;;;23.70;61.10;;;;;;5142026;27;20075;-49
2021/04/30 06:00:50;;;;;;;2.70;2.50;;;23.70;61.10;;;;;;5132875;27;20099;-54
2021/04/30 06:03:16;;;;;;;2.93;2.63;;;23.60;61.10;;;;;;5140140;27;20023;-51
2021/04/30 06:05:42;;;;;;;3.08;2.72;;;23.70;61.20;;;;;;5136809;27;20023;-51
2021/04/30 06:08:08;;;;;;;2.70;2.50;;;23.60;61.10;;;;;;5131346;27;20164;-48
2021/04/30 06:10:35;;;;;;;2.70;2.50;;;23.60;61.10;;;;;;5111024;28;20066;-50
2021/04/30 06:13:04;;;;;;;2.47;2.28;;;23.60;61.30;;;;;;5136045;27;20027;-51
2021/04/30 06:15:31;;;;;;;2.45;2.25;;;23.60;61.20;;;;;;5136889;27;20030;-47
2021/04/30 06:17:57;;;;;;;3.10;2.80;;;23.60;61.10;;;;;;5134661;27;20027;-50
2021/04/30 06:20:23;;;;;;;2.80;2.47;;;23.60;61.20;;;;;;5132225;27;20035;-49
2021/04/30 06:22:50;;;;;;;3.17;2.53;;;23.60;61.20;;;;;;5129037;27;20114;-51
2021/04/30 06:25:16;;;;;;;3.20;2.90;;;23.60;61.20;;;;;;5138369;27;20059;-48
2021/04/30 06:27:42;;;;;;;2.75;2.50;;;23.60;61.20;;;;;;5114458;28;20020;-52
2021/04/30 06:30:09;;;;;;;2.80;2.47;;;23.60;61.30;;;;;;5129244;27;20026;-49
2021/04/30 06:32:38;;;;;;;4.20;3.15;;;23.50;61.20;;;;;;5138612;27;20032;-50
2021/04/30 06:35:06;;;;;;;2.90;2.70;;;23.60;61.30;;;;;;5129938;27;20028;-52
2021/04/30 06:37:32;;;;;;;2.60;2.40;;;23.50;61.20;;;;;;5137532;27;20034;-49
2021/04/30 06:39:58;;;;;;;2.40;2.20;;;23.60;61.30;;;;;;5128998;27;20087;-50
2021/04/30 06:42:24;;;;;;;2.63;2.42;;;23.50;61.20;;;;;;5138337;27;20062;-49
2021/04/30 06:44:52;;;;;;;2.47;2.28;;;23.50;61.20;;;;;;5129038;27;20051;-50
2021/04/30 06:47:18;;;;;;;3.00;2.55;;;23.50;61.30;;;;;;5132609;27;20051;-49
2021/04/30 06:49:45;;;;;;;2.60;2.40;;;23.50;61.30;;;;;;5133081;27;20016;-50
2021/04/30 06:52:11;;;;;;;2.50;2.28;;;23.50;61.30;;;;;;5132529;27;20031;-51
2021/04/30 06:54:37;;;;;;;2.58;2.38;;;23.50;61.30;;;;;;5134180;27;20038;-49
2021/04/30 06:57:03;;;;;;;2.67;2.47;;;23.50;61.30;;;;;;5135570;27;20045;-52
2021/04/30 06:59:29;;;;;;;2.95;2.42;;;23.50;61.30;;;;;;5136443;27;20030;-51
2021/04/30 07:01:56;;;;;;;3.10;2.80;;;23.50;61.40;;;;;;5135727;27;20027;-51
2021/04/30 07:04:22;;;;;;;2.78;2.58;;;23.50;61.40;;;;;;5138324;27;20023;-52
2021/04/30 07:06:48;;;;;;;2.92;2.65;;;23.50;61.40;;;;;;5140229;27;20059;-52
2021/04/30 07:09:14;;;;;;;2.80;2.60;;;23.50;61.50;;;;;;5135188;27;20047;-51
2021/04/30 07:11:40;;;;;;;2.50;2.30;;;23.40;61.50;;;;;;5136397;27;20078;-51
2021/04/30 07:14:06;;;;;;;2.80;2.60;;;23.40;61.50;;;;;;5136213;27;20019;-50
2021/04/30 07:16:33;;;;;;;3.05;2.40;;;23.40;61.60;;;;;;5130592;27;20050;-49
2021/04/30 07:18:59;;;;;;;2.50;2.30;;;23.40;61.60;;;;;;5136134;27;20042;-49
2021/04/30 07:21:27;;;;;;;2.67;2.47;;;23.40;61.60;;;;;;5128072;27;20097;-51
2021/04/30 07:23:53;;;;;;;2.80;2.60;;;23.40;61.70;;;;;;5128936;27;20023;-49
2021/04/30 07:26:19;;;;;;;3.47;2.75;;;23.40;61.70;;;;;;5133016;27;20045;-48
2021/04/30 07:28:45;;;;;;;2.83;2.47;;;23.40;61.80;;;;;;5138414;27;20027;-50
2021/04/30 07:31:11;;;;;;;3.55;2.60;;;23.40;61.80;;;;;;5129973;27;20032;-50
2021/04/30 07:33:43;;;;;;;2.50;2.30;;;23.40;61.80;;;;;;5127150;27;20038;-52
2021/04/30 07:36:09;;;;;;;2.42;2.22;;;23.40;61.90;;;;;;5131946;27;20051;-50
2021/04/30 07:38:35;;;;;;;2.60;2.38;;;23.40;61.80;;;;;;5132187;27;20045;-51
2021/04/30 07:41:01;;;;;;;2.50;2.30;;;23.40;61.80;;;;;;5131561;27;20027;-49
2021/04/30 07:43:27;;;;;;;2.60;2.40;;;23.40;61.80;;;;;;5127371;27;20055;-51
2021/04/30 07:45:54;;;;;;;3.08;2.80;;;23.40;61.70;;;;;;5127774;27;20032;-52
2021/04/30 07:48:20;;;;;;;3.03;2.70;;;23.30;61.70;;;;;;5135589;27;20136;-52
2021/04/30 07:50:46;;;;;;;2.75;2.45;;;23.30;61.60;;;;;;5134030;27;20032;-48
2021/04/30 07:53:12;;;;;;;2.85;2.65;;;23.30;61.70;;;;;;5133488;27;20019;-50
2021/04/30 07:55:38;;;;;;;3.00;2.70;;;23.30;61.70;;;;;;5134797;27;20482;-52
2021/04/30 07:58:04;;;;;;;2.55;2.35;;;23.30;61.70;;;;;;5131433;27;20023;-53
2021/04/30 08:00:30;;;;;;;3.35;2.80;;;23.30;61.80;;;;;;5139383;27;20031;-51
2021/04/30 08:02:57;;;;;;;3.05;2.50;;;23.30;61.80;;;;;;5134701;27;20026;-49
2021/04/30 08:05:23;;;;;;;3.38;2.95;;;23.30;61.80;;;;;;5126560;27;20118;-52
2021/04/30 08:07:50;;;;;;;3.30;2.85;;;23.30;61.90;;;;;;5133554;27;20032;-50
2021/04/30 08:10:18;;;;;;;2.80;2.50;;;23.30;61.80;;;;;;5127389;27;20051;-51
2021/04/30 08:12:44;;;;;;;2.70;2.50;;;23.30;61.80;;;;;;5109461;28;20066;-49
2021/04/30 08:15:11;;;;;;;3.17;2.67;;;23.30;61.80;;;;;;5134727;27;20031;-52
2021/04/30 08:17:37;;;;;;;2.45;2.25;;;23.20;61.90;;;;;;5136191;27;20038;-53
2021/04/30 08:20:08;;;;;;;2.72;2.53;;;23.20;61.90;;;;;;5137949;27;20716;-52
2021/04/30 08:22:34;;;;;;;2.72;2.53;;;23.30;62.00;;;;;;5131362;27;20060;-50
2021/04/30 08:25:01;;;;;;;2.97;2.70;;;23.20;61.90;;;;;;5115949;27;20058;-50
2021/04/30 08:27:27;;;;;;;2.80;2.60;;;23.20;62.00;;;;;;5134434;27;20043;-52
2021/04/30 08:29:53;;;;;;;2.83;2.55;;;23.20;62.00;;;;;;5139012;27;20019;-49
2021/04/30 08:32:19;;;;;;;3.10;2.47;;;23.20;62.10;;;;;;5135137;27;20039;-50
2021/04/30 08:34:46;;;;;;;2.60;2.40;;;23.20;62.10;;;;;;5138289;27;20027;-53
2021/04/30 08:37:13;;;;;;;3.15;2.85;;;23.20;62.10;;;;;;5126108;28;20617;-50
2021/04/30 08:39:40;;;;;;;2.63;2.42;;;23.20;62.20;;;;;;5131930;27;20100;-48
2021/04/30 08:42:06;;;;;;;;;;;23.20;62.10;;;;;;5131265;28;20023;-49
2021/04/30 08:44:33;;;;;;;2.63;2.42;;;23.20;62.10;;;;;;5131598;27;19908;-51
2021/04/30 08:46:59;;;;;;;2.80;2.60;;;23.20;62.10;;;;;;5115985;28;20030;-50
2021/04/30 08:49:25;;;;;;;3.10;2.80;;;23.20;62.10;;;;;;5134289;27;20528;-53
2021/04/30 08:51:52;;;;;;;2.72;2.53;;;23.20;62.10;;;;;;5126696;27;20024;-52
2021/04/30 08:54:19;;;;;;;2.83;2.63;;;23.20;62.20;;;;;;5133637;28;20023;-51
2021/04/30 08:56:49;;;;;;;2.78;2.58;;;23.10;62.20;;;;;;5129859;28;20110;-51
2021/04/30 08:59:15;;;;;;;3.42;2.70;;;23.10;62.10;;;;;;5112205;28;20027;-52
2021/04/30 09:01:41;;;;;;;2.75;2.55;;;23.20;62.20;;;;;;5132770;28;20063;-52
2021/04/30 09:04:08;;;;;;;3.03;2.72;;;23.10;62.10;;;;;;5131878;28;20019;-49
2021/04/30 09:06:39;;;;;;;2.75;2.55;;;23.10;62.10;;;;;;5137855;28;20023;-52
2021/04/30 09:09:14;;;;;;;2.97;2.70;;;23.10;62.20;;;;;;5131300;28;20150;-50
2021/04/30 09:11:48;;;;;;;2.70;2.50;;;23.10;62.20;;;;;;5125487;28;20032;-52
2021/04/30 09:14:31;;;;;;;2.72;2.47;;;23.10;62.20;;;;;;5129662;28;20031;-52
2021/04/30 09:17:07;;;;;;;2.58;2.30;;;23.10;62.20;;;;;;5130704;28;20042;-50
2021/04/30 09:19:38;;;;;;;2.83;2.40;;;23.10;62.20;;;;;;5137437;27;20087;-50
2021/04/30 09:22:08;;;;;;;2.75;2.55;;;23.10;62.30;;;;;;5135402;27;20035;-51
2021/04/30 09:24:34;;;;;;;3.15;2.55;;;23.10;62.30;;;;;;5130304;27;20019;-50
2021/04/30 09:27:01;;;;;;;2.93;2.67;;;23.00;62.30;;;;;;5134532;27;20019;-52
2021/04/30 09:29:31;;;;;;;2.65;2.40;;;23.00;62.30;;;;;;5139111;27;20119;-48
2021/04/30 09:31:57;;;;;;;2.70;2.50;;;23.00;62.30;;;;;;5137312;27;20050;-52
2021/04/30 09:34:28;;;;;;;2.72;2.53;;;23.00;62.40;;;;;;5137509;27;20020;-51
2021/04/30 09:37:12;;;;;;;2.97;2.70;;;23.00;62.40;;;;;;5137497;27;20072;-53
2021/04/30 09:39:58;;;;;;;2.88;2.67;;;23.00;62.40;;;;;;5135830;27;20529;-52
2021/04/30 09:42:28;;;;;;;2.60;2.40;;;23.00;62.40;;;;;;5136204;27;20027;-49
2021/04/30 09:44:59;;;;;;;3.55;2.80;;;23.00;62.40;;;;;;5135636;27;20031;-51
2021/04/30 09:47:30;;;;;;;2.80;2.60;;;23.00;62.40;;;;;;5121058;27;20045;-53
2021/04/30 09:50:00;;;;;;;2.30;2.10;;;23.00;62.40;;;;;;5136740;27;20038;-51
2021/04/30 09:52:27;;;;;;;3.25;2.30;;;23.00;62.40;;;;;;5153612;27;20437;-49
2021/04/30 09:54:54;;;;;;;3.08;2.67;;;23.00;62.40;;;;;;5134972;27;20210;-51
2021/04/30 09:57:26;;;;;;;2.75;2.55;;;22.90;62.40;;;;;;5140359;27;20124;-48
2021/04/30 10:00:05;;;;;;;2.63;2.42;;;22.90;62.40;;;;;;5140841;27;20023;-49
2021/04/30 10:02:32;;;;;;;2.65;2.45;;;22.90;62.60;;;;;;5144387;27;20034;-50
2021/04/30 10:05:09;;;;;;;2.90;2.70;;;22.90;62.40;;;;;;5118614;27;20031;-52
2021/04/30 10:07:39;;;;;;;2.72;2.53;;;22.80;62.40;;;;;;5132994;27;20035;-52
2021/04/30 10:10:15;;;;;;;2.42;2.22;;;22.80;62.40;;;;;;5134758;27;20425;-51
2021/04/30 10:12:46;;;;;;;2.50;2.30;;;22.80;63.10;;;;;;5137999;27;20511;-48
2021/04/30 10:15:19;;;;;;;2.92;2.50;;;22.80;62.40;;;;;;5129383;27;20042;-52
2021/04/30 10:17:45;;;;;;;2.47;2.28;;;22.80;62.30;;;;;;5137265;27;20023;-50
2021/04/30 10:20:17;;;;;;;2.40;2.20;;;22.80;62.50;;;;;;5119514;27;20066;-54
2021/04/30 10:22:45;;;;;;;2.40;2.20;;;22.80;62.40;;;;;;5135271;27;20020;-53
2021/04/30 10:25:12;;;;;;;;;;;22.80;62.60;;;;;;5138660;27;20083;-54
2021/04/30 10:27:39;;;;;;;;;;;22.80;62.60;;;;;;5136147;27;20010;-52
2021/04/30 10:30:18;;;;;;;;;;;22.80;62.60;;;;;;5137629;27;19907;-51
2021/04/30 10:33:03;;;;;;;;;;;22.80;62.60;;;;;;5137516;27;19912;-53
2021/04/30 10:35:29;;;;;;;;;;;22.70;62.60;;;;;;5125506;27;19911;-52
2021/04/30 10:37:58;;;;;;;;;;;22.70;62.60;;;;;;5137322;27;19907;-52
2021/04/30 10:40:24;;;;;;;;;;;22.70;62.60;;;;;;5118929;27;20295;-52
2021/04/30 10:42:49;;;;;;;;;;;22.70;62.60;;;;;;5115427;27;19908;-52
2021/04/30 10:45:16;;;;;;;;;;;22.70;62.70;;;;;;5131940;27;19911;-52
2021/04/30 10:47:42;;;;;;;;;;;22.60;62.60;;;;;;5136924;27;19907;-53
2021/04/30 10:50:09;;;;;;;;;;;22.60;62.60;;;;;;5128988;27;19904;-52
2021/04/30 10:52:35;;;;;;;;;;;22.70;62.60;;;;;;5138777;27;19907;-52
2021/04/30 10:55:05;;;;;;;;;;;22.60;62.50;;;;;;5139401;27;19912;-52
2021/04/30 10:57:50;;;;;;;;;;;22.70;62.60;;;;;;5132573;27;19908;-52
2021/04/30 11:00:17;;;;;;;;;;;22.60;62.60;;;;;;5136982;27;19903;-52
2021/04/30 11:02:43;;;;;;;;;;;22.60;62.60;;;;;;5139259;27;19915;-50
2021/04/30 11:05:13;;;;;;;;;;;22.60;63.30;;;;;;5133110;27;20370;-53
2021/04/30 11:07:46;;;;;;;;;;;22.60;62.70;;;;;;5128904;27;19935;-52
2021/04/30 11:10:30;;;;;;;;;;;22.60;62.60;;;;;;5134228;27;20340;-53
2021/04/30 11:12:57;;;;;;;;;;;22.60;62.60;;;;;;5124768;27;19990;-52
2021/04/30 11:15:23;;;;;;;;;;;22.50;62.50;;;;;;5138300;27;19920;-51
2021/04/30 11:17:55;;;;;;;;;;;22.50;62.60;;;;;;5130611;27;19911;-51
2021/04/30 11:20:21;;;;;;;;;;;22.50;62.60;;;;;;5134222;27;19907;-59
2021/04/30 11:23:06;;;;;;;;;;;22.50;62.60;;;;;;5132600;27;19912;-52
2021/04/30 11:25:32;;;;;;;;;;;22.50;62.50;;;;;;5140415;27;19934;-52
2021/04/30 11:27:58;;;;;;;;;;;22.50;62.50;;;;;;5132005;27;19974;-50
2021/04/30 11:30:24;;;;;;;;;;;22.50;62.70;;;;;;5134131;27;20420;-53
2021/04/30 11:32:51;;;;;;;;;;;22.40;62.60;;;;;;5130507;27;19931;-51
2021/04/30 11:35:17;;;;;;;;;;;22.40;62.70;;;;;;5133086;27;20014;-54
2021/04/30 11:37:42;;;;;;;;;;;22.40;62.60;;;;;;5144722;27;19908;-52
2021/04/30 11:40:10;;;;;;;;;;;22.40;62.60;;;;;;5128667;27;19914;-52
2021/04/30 11:42:37;;;;;;;;;;;22.40;62.50;;;;;;5142432;27;19910;-52
2021/04/30 11:45:03;;;;;;;;;;;22.40;62.50;;;;;;5132557;27;19982;-53
2021/04/30 11:47:29;;;;;;;;;;;22.40;62.60;;;;;;5128056;27;19923;-52
2021/04/30 11:49:56;;;;;;;;;;;22.40;62.70;;;;;;5137023;27;19954;-51
2021/04/30 11:52:28;;;;;;;;;;;22.40;62.70;;;;;;5128903;27;19990;-52
2021/04/30 11:55:03;;;;;;;;;;;22.40;62.70;;;;;;5133531;27;20006;-53
2021/04/30 11:57:30;;;;;;;;;;;22.30;62.50;;;;;;5133963;27;19922;-53
2021/04/30 11:59:57;;;;;;;;;;;22.30;62.70;;;;;;5134803;27;19907;-53
2021/04/30 12:02:26;;;;;;;;;;;22.30;62.70;;;;;;5136773;27;19910;-53
2021/04/30 12:04:54;;;;;;;;;;;22.30;62.70;;;;;;5132066;27;19929;-52
2021/04/30 12:07:21;;;;;;;;;;;22.30;62.70;;;;;;5135322;27;19933;-53
2021/04/30 12:09:47;;;;;;;;;;;22.30;62.60;;;;;;5136267;27;19941;-54
2021/04/30 12:12:13;;;;;;;;;;;22.30;62.70;;;;;;5131717;27;19903;-53
2021/04/30 12:14:49;;;;;;;;;;;22.30;62.60;;;;;;5108860;28;19911;-53
2021/04/30 12:17:21;;;;;;;;;;;22.30;62.60;;;;;;5130821;27;19916;-54
2021/04/30 12:19:54;;;;;;;;;;;22.20;62.70;;;;;;5131914;27;19908;-54
2021/04/30 12:22:19;;;;;;;;;;;22.30;62.80;;;;;;5135183;27;19975;-50
2021/04/30 12:24:45;;;;;;;;;;;22.20;62.60;;;;;;5126759;27;19904;-55
2021/04/30 12:27:23;;;;;;;;;;;22.20;62.60;;;;;;5121037;28;19962;-54
2021/04/30 12:29:50;;;;;;;;;;;22.20;62.60;;;;;;5132362;27;19995;-54
2021/04/30 12:32:28;;;;;;;;;;;22.20;62.70;;;;;;5132201;27;19903;-52
2021/04/30 12:34:55;;;;;;;;;;;22.20;62.70;;;;;;5130092;27;20449;-53
2021/04/30 12:37:21;;;;;;;;;;;22.20;62.70;;;;;;5134965;27;19942;-53
2021/04/30 12:39:47;;;;;;;;;;;22.20;62.60;;;;;;5132802;27;19912;-52
2021/04/30 12:42:13;;;;;;;;;;;22.20;62.60;;;;;;5139817;27;19907;-50
2021/04/30 12:44:48;;;;;;;;;;;22.20;62.80;;;;;;5130986;27;19918;-51
2021/04/30 12:47:14;;;;;;;;;;;22.10;62.60;;;;;;5131695;27;19907;-48
2021/04/30 12:49:39;;;;;;;;;;;22.20;62.70;;;;;;5136382;27;19914;-48
2021/04/30 12:52:05;;;;;;;;;;;22.20;62.70;;;;;;5112583;28;19907;-49
2021/04/30 12:54:32;;;;;;;;;;;22.10;62.60;;;;;;5111870;28;19908;-51
2021/04/30 12:56:59;;;;;;;;;;;22.10;62.70;;;;;;5134200;28;19978;-52
2021/04/30 12:59:26;;;;;;;;;;;22.10;62.60;;;;;;5132023;28;19957;-49
2021/04/30 13:01:52;;;;;;;;;;;22.10;62.60;;;;;;5133288;28;20296;-51
2021/04/30 13:04:19;;;;;;;;;;;22.10;62.70;;;;;;5132968;28;19907;-51
2021/04/30 13:06:45;;;;;;;;;;;22.10;62.70;;;;;;5127752;28;19925;-47